Airfield :
LOGIN :

Register | Disclaimer

   EN    FR    IT 

 










Legend :    VFR   Marginal VFR   IFR   Intensive IFR   Very Intensive IFR
Visi :
Ceiling :
>= 8 km
>= 3000ft
5 to 8 km
1000 to 3000 ft
1500m to 5 km
500 to 1000 ft
800 to 1500m
200 to 500 ft
< 800m
< 200 ft
Symbols :   Thunderstorms  Fog  Heavy snow  Heavy precipitations  Wind > 20 kt
SIGMETs :     Misc.  Thunderstorms  Icing  Turbulence  Mountain Waves  Volcanic Ashes







- Airport Elevation : 3006 ft
- IATA code : LEN


LELN - Leon

CURRENT METAR :
  • 160000Z AUTO 07004KT 030V110 9999 OVC041 15/14 Q1023

EXPIRED METARs :
  • 152330Z AUTO 10003KT 070V140 9999 OVC045 15/15 Q1023
  • 152300Z AUTO VRB02KT 9999 FEW025 BKN050 15/13 Q1023
  • 152230Z AUTO 12005KT 080V150 9999 -RA FEW027 BKN050 16/12 Q1023
  • 152200Z AUTO 10005KT 070V140 9999 SCT050 17/11 Q1023
  • 152130Z AUTO 12003KT 070V160 CAVOK 18/10 Q1022

TAF TAF LELN
Valid from the 15 at 18:00 until the 16 at 03:00 UTC


151700Z 1518/1603 09010KT 9999 SCT025 BKN035
TEMPO 1518/1523 4000 RA SHRA BKN012 SCT030TCU
PROB40
TEMPO 1518/1520 VRB15G25KT 3000 TS SHRA SCT025CB
No reported NOTAMs for that airfield.



MET'MAP, your aeronautical weather chart ! - Copyright ORBIFLY December 2007 - Disclaimer

ORBIFLY MET'MAP TEAM :

Programming & Development : Alexandra Zaïnal
Concept & Development : Baudouin d'Aumeries
Co-Development & Prog : Marc-Olivier Méhu
Technical & hardware support : Manuel Goepfert

Contact : metmap@orbifly.com




SOURCES & CREDITS :

   NOAA